createdAt,value
2023-02-12T00:00:44.164Z,7.00
2023-02-12T00:03:12.374Z,7.00
2023-02-12T00:05:41.555Z,6.90
2023-02-12T00:08:11.139Z,6.80
2023-02-12T00:10:42.901Z,6.80
2023-02-12T00:13:10.651Z,6.90
2023-02-12T00:15:41.719Z,6.90
2023-02-12T00:18:09.771Z,6.80
2023-02-12T00:20:38.811Z,6.90
2023-02-12T00:23:07.122Z,6.90
2023-02-12T00:25:35.372Z,6.90
2023-02-12T00:28:03.356Z,6.90
2023-02-12T00:30:31.112Z,6.90
2023-02-12T00:33:01.724Z,6.90
2023-02-12T00:35:29.489Z,7.00
2023-02-12T00:37:57.217Z,6.90
2023-02-12T00:40:24.928Z,6.80
2023-02-12T00:42:52.598Z,6.90
2023-02-12T00:45:20.489Z,6.80
2023-02-12T00:47:48.212Z,6.70
2023-02-12T00:50:17.868Z,6.80
2023-02-12T00:52:45.580Z,6.80
2023-02-12T00:55:13.230Z,6.80
2023-02-12T00:57:40.935Z,6.80
2023-02-12T01:00:09.543Z,6.80
2023-02-12T01:02:37.237Z,6.90
2023-02-12T01:05:05.234Z,6.80
2023-02-12T01:07:34.231Z,6.70
2023-02-12T01:10:02.040Z,6.70
2023-02-12T01:12:30.710Z,6.70
2023-02-12T01:14:58.397Z,6.70
2023-02-12T01:17:26.472Z,6.70
2023-02-12T01:19:58.236Z,6.70
2023-02-12T01:22:26.525Z,6.70
2023-02-12T01:24:55.548Z,6.70
2023-02-12T01:27:23.267Z,6.80
2023-02-12T01:29:51.056Z,6.70
2023-02-12T01:32:18.807Z,6.70
2023-02-12T01:34:46.565Z,6.60
2023-02-12T01:37:14.263Z,6.70
2023-02-12T01:39:41.993Z,6.70
2023-02-12T01:42:14.086Z,6.70
2023-02-12T01:44:45.768Z,6.70
2023-02-12T01:47:18.597Z,6.80
2023-02-12T01:49:48.844Z,6.70
2023-02-12T01:52:20.049Z,6.70
2023-02-12T01:54:49.582Z,6.70
2023-02-12T01:57:20.203Z,6.60
2023-02-12T01:59:51.779Z,6.50
2023-02-12T02:02:20.702Z,6.50
2023-02-12T02:04:53.966Z,6.50
2023-02-12T02:07:21.914Z,6.60
2023-02-12T02:09:49.802Z,6.60
2023-02-12T02:12:32.866Z,6.60
2023-02-12T02:15:03.923Z,6.60
2023-02-12T02:17:42.174Z,6.60
2023-02-12T02:20:32.959Z,6.60
2023-02-12T02:23:13.377Z,6.60
2023-02-12T02:26:06.701Z,6.70
2023-02-12T02:28:54.412Z,6.70
2023-02-12T02:31:29.084Z,6.70
2023-02-12T02:34:00.145Z,6.70
2023-02-12T02:36:35.716Z,6.70
2023-02-12T02:39:09.204Z,6.60
2023-02-12T02:41:43.542Z,6.60
2023-02-12T02:44:18.076Z,6.70
2023-02-12T02:46:49.573Z,6.60
2023-02-12T02:49:23.707Z,6.60
2023-02-12T02:51:55.720Z,6.60
2023-02-12T02:54:28.567Z,6.60
2023-02-12T02:57:01.899Z,6.60
2023-02-12T02:59:34.091Z,6.60
2023-02-12T03:02:08.820Z,6.60
2023-02-12T03:04:41.211Z,6.70
2023-02-12T03:07:14.007Z,6.60
2023-02-12T03:09:46.088Z,6.60
2023-02-12T03:12:17.440Z,6.70
2023-02-12T03:14:48.603Z,6.70
2023-02-12T03:17:22.247Z,6.70
2023-02-12T03:19:55.930Z,6.70
2023-02-12T03:22:27.858Z,6.70
2023-02-12T03:25:01.571Z,6.70
2023-02-12T03:27:32.466Z,6.70
2023-02-12T03:30:01.186Z,6.70
2023-02-12T03:32:37.571Z,6.70
2023-02-12T03:35:13.566Z,6.80
2023-02-12T03:37:47.383Z,6.80
2023-02-12T03:40:19.634Z,6.80
2023-02-12T03:42:58.629Z,6.90
2023-02-12T03:45:37.675Z,6.90
2023-02-12T03:48:14.804Z,6.70
2023-02-12T03:50:48.808Z,6.70
2023-02-12T03:53:16.570Z,6.80
2023-02-12T03:55:48.084Z,6.80
2023-02-12T03:58:20.373Z,6.80
2023-02-12T04:00:48.506Z,6.80
2023-02-12T04:03:17.556Z,6.80
2023-02-12T04:05:45.259Z,6.90
2023-02-12T04:08:13.867Z,6.80
2023-02-12T04:10:51.869Z,6.80
2023-02-12T04:13:24.671Z,6.70
2023-02-12T04:16:05.869Z,6.70
2023-02-12T04:18:42.886Z,6.70
2023-02-12T04:21:18.980Z,6.60
2023-02-12T04:23:51.185Z,6.60
2023-02-12T04:26:24.923Z,6.60
2023-02-12T04:29:00.431Z,6.50
2023-02-12T04:31:32.472Z,6.60
2023-02-12T04:34:09.330Z,6.60
2023-02-12T04:36:44.102Z,6.70
2023-02-12T04:39:17.758Z,6.70
2023-02-12T04:41:45.450Z,6.80
2023-02-12T04:44:17.172Z,6.70
2023-02-12T04:46:44.889Z,6.60
2023-02-12T04:49:20.497Z,6.70
2023-02-12T04:51:49.204Z,6.70
2023-02-12T04:54:18.556Z,6.50
2023-02-12T04:56:47.158Z,6.50
2023-02-12T04:59:15.248Z,6.50
2023-02-12T05:01:44.387Z,6.60
2023-02-12T05:04:16.264Z,6.70
2023-02-12T05:06:45.241Z,6.70
2023-02-12T05:09:16.062Z,6.70
2023-02-12T05:11:44.089Z,6.60
2023-02-12T05:14:12.244Z,6.60
2023-02-12T05:16:39.943Z,6.60
2023-02-12T05:19:09.327Z,6.60
2023-02-12T05:21:38.963Z,6.70
2023-02-12T05:24:07.018Z,6.50
2023-02-12T05:26:35.219Z,6.50
2023-02-12T05:29:04.166Z,6.60
2023-02-12T05:31:32.383Z,6.60
2023-02-12T05:34:00.528Z,6.60
2023-02-12T05:36:28.722Z,6.70
2023-02-12T05:39:00.592Z,6.70
2023-02-12T05:41:29.024Z,6.70
2023-02-12T05:43:56.700Z,6.70
2023-02-12T05:46:24.526Z,6.80
2023-02-12T05:48:52.270Z,6.80
2023-02-12T05:51:22.050Z,6.80
2023-02-12T05:53:50.620Z,6.80
2023-02-12T05:56:21.270Z,6.80
2023-02-12T05:58:52.520Z,6.80
2023-02-12T06:01:22.569Z,6.80
2023-02-12T06:03:50.308Z,6.80
2023-02-12T06:06:18.111Z,6.80
2023-02-12T06:08:49.067Z,6.80
2023-02-12T06:11:19.270Z,6.90
2023-02-12T06:13:47.176Z,6.90
2023-02-12T06:16:19.710Z,6.90
2023-02-12T06:18:47.522Z,6.90
2023-02-12T06:21:15.601Z,6.90
2023-02-12T06:23:43.327Z,6.90
2023-02-12T06:26:11.219Z,6.80
2023-02-12T06:28:40.291Z,6.50
2023-02-12T06:31:18.970Z,6.40
2023-02-12T06:33:46.864Z,6.40
2023-02-12T06:36:14.576Z,6.20
2023-02-12T06:38:43.500Z,6.10
2023-02-12T06:41:11.387Z,6.10
2023-02-12T06:43:40.524Z,5.90
2023-02-12T06:46:09.150Z,5.90
2023-02-12T06:48:36.867Z,5.70
2023-02-12T06:51:06.614Z,5.70
2023-02-12T06:53:35.354Z,5.60
2023-02-12T06:56:04.469Z,5.50
2023-02-12T06:58:32.194Z,5.50
2023-02-12T07:01:13.376Z,5.40
2023-02-12T07:03:42.009Z,5.30
2023-02-12T07:06:11.232Z,5.20
2023-02-12T07:08:38.919Z,5.00
2023-02-12T07:11:06.928Z,5.00
2023-02-12T07:13:35.169Z,5.10
2023-02-12T07:16:07.400Z,5.10
2023-02-12T07:18:37.206Z,5.00
2023-02-12T07:21:06.661Z,4.90
2023-02-12T07:23:35.236Z,4.80
2023-02-12T07:26:05.437Z,4.80
2023-02-12T07:28:34.212Z,4.80
2023-02-12T07:31:07.611Z,4.80
2023-02-12T07:33:37.728Z,4.70
2023-02-12T07:36:07.016Z,4.80
2023-02-12T07:38:35.908Z,4.80
2023-02-12T07:41:12.122Z,4.80
2023-02-12T07:43:40.657Z,4.80
2023-02-12T07:46:10.714Z,4.90
2023-02-12T07:48:40.428Z,4.90
2023-02-12T07:51:10.048Z,5.00
2023-02-12T07:53:38.192Z,5.10
2023-02-12T07:56:07.719Z,5.10
2023-02-12T07:58:35.549Z,5.00
2023-02-12T08:01:13.325Z,5.10
2023-02-12T08:03:42.732Z,5.30
2023-02-12T08:06:11.580Z,5.30
2023-02-12T08:08:39.359Z,5.40
2023-02-12T08:11:08.279Z,5.50
2023-02-12T08:13:36.135Z,5.70
2023-02-12T08:16:05.243Z,5.80
2023-02-12T08:18:34.404Z,6.20
2023-02-12T08:21:04.851Z,7.40
2023-02-12T08:23:32.905Z,8.70
2023-02-12T08:26:07.425Z,10.00
2023-02-12T08:28:35.585Z,12.00
2023-02-12T08:31:03.862Z,13.80
2023-02-12T08:33:31.801Z,14.80
2023-02-12T08:36:06.712Z,16.00
2023-02-12T08:38:35.101Z,16.60
2023-02-12T08:41:03.970Z,17.70
2023-02-12T08:43:31.987Z,16.50
2023-02-12T08:46:03.956Z,16.70
2023-02-12T08:48:32.215Z,16.30
2023-02-12T08:51:07.789Z,16.20
2023-02-12T08:53:35.852Z,17.00
2023-02-12T08:56:03.992Z,17.20
2023-02-12T08:58:32.262Z,18.00
2023-02-12T09:01:00.171Z,19.00
2023-02-12T09:03:28.070Z,19.70
2023-02-12T09:05:56.347Z,19.50
2023-02-12T09:08:25.731Z,18.40
2023-02-12T09:10:53.394Z,16.80
2023-02-12T09:13:21.125Z,18.20
2023-02-12T09:15:48.897Z,19.60
2023-02-12T09:18:17.178Z,17.40
2023-02-12T09:20:45.839Z,15.80
2023-02-12T09:23:15.413Z,16.90
2023-02-12T09:25:45.991Z,17.90
2023-02-12T09:28:15.363Z,18.70
2023-02-12T09:30:43.252Z,19.30
2023-02-12T09:33:12.096Z,20.20
2023-02-12T09:35:40.064Z,21.30
2023-02-12T09:38:08.980Z,20.50
2023-02-12T09:40:44.557Z,19.90
2023-02-12T09:43:19.207Z,21.00
2023-02-12T09:45:56.757Z,21.10
2023-02-12T09:48:40.829Z,19.60
2023-02-12T09:51:10.760Z,19.50
2023-02-12T09:53:43.192Z,18.40
2023-02-12T09:56:15.227Z,17.60
2023-02-12T09:58:48.089Z,16.30
2023-02-12T10:01:18.294Z,16.40
2023-02-12T10:03:48.023Z,16.10
2023-02-12T10:06:18.573Z,15.30
2023-02-12T10:08:58.852Z,14.60
2023-02-12T10:11:42.590Z,13.80
2023-02-12T10:14:30.594Z,13.80
2023-02-12T10:17:07.617Z,13.70
2023-02-12T10:19:57.473Z,13.20
2023-02-12T10:22:36.350Z,12.90
2023-02-12T10:25:19.027Z,12.60
2023-02-12T10:27:51.177Z,12.60
2023-02-12T10:30:25.544Z,12.50
2023-02-12T10:32:59.923Z,12.40
2023-02-12T10:35:28.003Z,12.50
2023-02-12T10:38:01.471Z,12.50
2023-02-12T10:40:33.796Z,12.60
2023-02-12T10:43:03.263Z,12.40
2023-02-12T10:45:34.605Z,12.10
2023-02-12T10:48:09.737Z,12.10
2023-02-12T10:50:49.681Z,12.00
2023-02-12T10:53:22.543Z,11.90
2023-02-12T10:55:50.691Z,11.90
2023-02-12T10:58:22.605Z,12.10
2023-02-12T11:00:59.320Z,12.10
2023-02-12T11:03:34.072Z,12.20
2023-02-12T11:06:14.250Z,12.20
2023-02-12T11:08:42.493Z,12.20
2023-02-12T11:11:13.232Z,12.20
2023-02-12T11:13:45.682Z,12.30
2023-02-12T11:16:14.849Z,12.40
2023-02-12T11:18:43.183Z,12.40
2023-02-12T11:21:12.958Z,12.40
2023-02-12T11:23:42.509Z,12.50
2023-02-12T11:26:26.524Z,12.50
2023-02-12T11:28:57.044Z,12.50
2023-02-12T11:31:27.472Z,12.60
2023-02-12T11:34:15.441Z,12.60
2023-02-12T11:36:45.114Z,12.70
2023-02-12T11:39:24.618Z,12.80
2023-02-12T11:41:54.946Z,13.00
2023-02-12T11:44:25.888Z,13.30
2023-02-12T11:46:58.759Z,13.60
2023-02-12T11:49:30.374Z,14.20
2023-02-12T11:52:00.295Z,14.90
2023-02-12T11:54:31.210Z,15.30
2023-02-12T11:56:58.963Z,15.40
2023-02-12T11:59:35.165Z,15.30
2023-02-12T12:02:14.970Z,14.80
2023-02-12T12:04:44.754Z,14.40
2023-02-12T12:07:18.969Z,14.00
2023-02-12T12:09:51.061Z,13.70
2023-02-12T12:12:23.497Z,13.40
2023-02-12T12:15:09.153Z,13.30
2023-02-12T12:17:58.929Z,13.10
2023-02-12T12:20:31.480Z,13.00
2023-02-12T12:23:04.604Z,12.90
2023-02-12T12:25:39.972Z,12.80
2023-02-12T12:28:22.552Z,12.70
2023-02-12T12:30:57.925Z,12.60
2023-02-12T12:33:38.035Z,12.60
2023-02-12T12:36:28.320Z,12.60
2023-02-12T12:39:04.894Z,12.60
2023-02-12T12:41:41.318Z,12.60
2023-02-12T12:44:19.988Z,12.60
2023-02-12T12:47:01.674Z,12.60
2023-02-12T12:49:49.449Z,12.60
2023-02-12T12:52:32.645Z,12.60
2023-02-12T12:55:17.306Z,12.60
2023-02-12T12:57:58.270Z,12.60
2023-02-12T13:00:42.037Z,12.60
2023-02-12T13:03:28.948Z,12.60
2023-02-12T13:06:20.009Z,12.60
2023-02-12T13:08:59.098Z,12.60
2023-02-12T13:11:39.795Z,12.60
2023-02-12T13:14:25.095Z,12.70
2023-02-12T13:17:01.508Z,12.80
2023-02-12T13:19:38.994Z,12.90
2023-02-12T13:22:13.506Z,12.80
2023-02-12T13:24:48.269Z,12.90
2023-02-12T13:27:19.967Z,12.90
2023-02-12T13:29:51.253Z,12.90
2023-02-12T13:32:25.321Z,13.00
2023-02-12T13:34:54.962Z,13.00
2023-02-12T13:37:36.323Z,13.00
2023-02-12T13:40:06.516Z,13.00
2023-02-12T13:42:44.183Z,13.00
2023-02-12T13:45:24.455Z,13.10
2023-02-12T13:48:04.523Z,13.10
2023-02-12T13:50:43.571Z,13.10
2023-02-12T13:53:22.252Z,13.10
2023-02-12T13:56:03.670Z,13.10
2023-02-12T13:58:49.164Z,13.20
2023-02-12T14:01:41.683Z,13.20
2023-02-12T14:04:29.417Z,13.30
2023-02-12T14:07:01.377Z,13.30
2023-02-12T14:09:37.633Z,13.40
2023-02-12T14:12:08.056Z,13.40
2023-02-12T14:14:39.522Z,13.40
2023-02-12T14:17:37.460Z,13.40
2023-02-12T14:20:09.774Z,13.30
2023-02-12T14:23:07.306Z,13.30
2023-02-12T14:25:44.476Z,13.40
2023-02-12T14:28:24.026Z,13.40
2023-02-12T14:31:21.736Z,13.40
2023-02-12T14:33:51.775Z,13.40
2023-02-12T14:36:40.046Z,13.40
2023-02-12T14:39:29.322Z,13.50
2023-02-12T14:42:33.169Z,13.50
2023-02-12T14:45:00.888Z,13.40
2023-02-12T14:47:50.881Z,13.40
2023-02-12T14:50:22.926Z,13.40
2023-02-12T14:52:56.075Z,13.40
2023-02-12T14:55:27.680Z,13.40
2023-02-12T14:58:01.091Z,13.40
2023-02-12T15:00:33.851Z,13.40
2023-02-12T15:03:14.350Z,13.50
2023-02-12T15:05:44.486Z,13.60
2023-02-12T15:08:23.939Z,13.80
2023-02-12T15:10:56.252Z,14.10
2023-02-12T15:13:34.022Z,14.00
2023-02-12T15:16:09.500Z,14.10
2023-02-12T15:18:49.076Z,14.00
2023-02-12T15:21:21.900Z,13.90
2023-02-12T15:24:01.786Z,13.80
2023-02-12T15:26:32.133Z,13.90
2023-02-12T15:29:02.098Z,13.80
2023-02-12T15:31:31.702Z,13.80
2023-02-12T15:34:01.653Z,13.60
2023-02-12T15:36:34.173Z,13.50
2023-02-12T15:39:04.201Z,13.30
2023-02-12T15:41:41.893Z,13.20
2023-02-12T15:44:27.776Z,13.00
2023-02-12T15:46:57.538Z,12.80
2023-02-12T15:49:29.508Z,12.80
2023-02-12T15:51:58.363Z,12.60
2023-02-12T15:54:26.445Z,12.50
2023-02-12T15:56:55.724Z,12.40
2023-02-12T15:59:25.493Z,12.50
2023-02-12T16:01:58.576Z,12.30
2023-02-12T16:04:30.334Z,12.20
2023-02-12T16:06:59.348Z,12.10
2023-02-12T16:09:31.396Z,12.10
2023-02-12T16:12:01.506Z,11.90
2023-02-12T16:14:39.416Z,11.90
2023-02-12T16:17:23.009Z,11.80
2023-02-12T16:19:59.549Z,11.70
2023-02-12T16:22:33.081Z,11.60
2023-02-12T16:25:02.063Z,11.50
2023-02-12T16:27:32.056Z,11.40
2023-02-12T16:30:02.724Z,11.30
2023-02-12T16:32:36.252Z,11.20
2023-02-12T16:35:07.530Z,11.10
2023-02-12T16:37:46.452Z,11.00
2023-02-12T16:40:27.516Z,10.90
2023-02-12T16:43:02.689Z,10.80
2023-02-12T16:45:39.809Z,10.70
2023-02-12T16:48:17.610Z,10.60
2023-02-12T16:50:48.454Z,10.50
2023-02-12T16:53:27.865Z,10.40
2023-02-12T16:55:56.915Z,10.30
2023-02-12T16:58:26.196Z,10.20
2023-02-12T17:00:55.667Z,10.30
2023-02-12T17:03:25.492Z,10.30
2023-02-12T17:05:53.357Z,10.20
2023-02-12T17:08:23.282Z,10.10
2023-02-12T17:10:51.519Z,10.10
2023-02-12T17:13:20.663Z,10.10
2023-02-12T17:15:53.227Z,10.00
2023-02-12T17:18:21.437Z,10.00
2023-02-12T17:20:54.594Z,9.90
2023-02-12T17:23:23.218Z,9.90
2023-02-12T17:25:51.381Z,9.80
2023-02-12T17:28:19.138Z,9.70
2023-02-12T17:30:46.880Z,9.70
2023-02-12T17:33:14.585Z,9.70
2023-02-12T17:35:42.337Z,9.60
2023-02-12T17:38:11.481Z,9.60
2023-02-12T17:40:39.680Z,9.50
2023-02-12T17:43:08.368Z,9.50
2023-02-12T17:45:36.175Z,9.30
2023-02-12T17:48:04.120Z,9.10
2023-02-12T17:50:31.807Z,9.00
2023-02-12T17:52:59.506Z,9.00
2023-02-12T17:55:28.508Z,8.90
2023-02-12T17:57:56.379Z,8.90
2023-02-12T18:00:25.364Z,8.80
2023-02-12T18:02:53.370Z,8.80
2023-02-12T18:05:21.074Z,8.70
2023-02-12T18:07:48.771Z,8.70
2023-02-12T18:10:16.602Z,8.70
2023-02-12T18:12:45.639Z,8.50
2023-02-12T18:15:14.764Z,8.30
2023-02-12T18:17:43.566Z,8.30
2023-02-12T18:20:12.685Z,8.30
2023-02-12T18:22:40.405Z,8.00
2023-02-12T18:25:09.004Z,8.00
2023-02-12T18:27:39.433Z,8.00
2023-02-12T18:30:10.090Z,8.10
2023-02-12T18:32:40.510Z,8.20
2023-02-12T18:35:09.380Z,8.20
2023-02-12T18:37:37.232Z,8.20
2023-02-12T18:40:05.187Z,8.20
2023-02-12T18:42:33.227Z,8.00
2023-02-12T18:45:01.022Z,7.90
2023-02-12T18:47:30.117Z,7.80
2023-02-12T18:49:58.708Z,7.70
2023-02-12T18:52:26.586Z,7.60
2023-02-12T18:54:54.468Z,7.60
2023-02-12T18:57:22.169Z,7.40
2023-02-12T18:59:49.896Z,7.50
2023-02-12T19:02:17.769Z,7.50
2023-02-12T19:04:46.846Z,7.50
2023-02-12T19:07:14.666Z,7.40
2023-02-12T19:09:42.508Z,7.30
2023-02-12T19:12:10.824Z,7.30
2023-02-12T19:14:38.540Z,7.20
2023-02-12T19:17:06.325Z,7.20
2023-02-12T19:19:34.024Z,7.20
2023-02-12T19:22:02.994Z,7.20
2023-02-12T19:24:45.513Z,7.20
2023-02-12T19:27:14.276Z,7.10
2023-02-12T19:29:42.080Z,7.10
2023-02-12T19:32:09.828Z,7.10
2023-02-12T19:34:37.519Z,6.90
2023-02-12T19:37:07.849Z,6.90
2023-02-12T19:39:35.581Z,6.90
2023-02-12T19:42:03.712Z,6.90
2023-02-12T19:44:31.378Z,6.80
2023-02-12T19:46:59.424Z,6.80
2023-02-12T19:49:28.807Z,6.80
2023-02-12T19:51:56.717Z,6.70
2023-02-12T19:54:26.039Z,6.60
2023-02-12T19:56:55.117Z,6.50
2023-02-12T19:59:24.933Z,6.50
2023-02-12T20:01:52.745Z,6.50
2023-02-12T20:04:23.709Z,6.50
2023-02-12T20:06:52.298Z,6.10
2023-02-12T20:09:21.237Z,6.00
2023-02-12T20:11:50.540Z,6.00
2023-02-12T20:14:20.659Z,6.00
2023-02-12T20:16:48.470Z,6.00
2023-02-12T20:19:17.932Z,5.90
2023-02-12T20:21:48.589Z,5.60
2023-02-12T20:24:16.509Z,5.40
2023-02-12T20:26:44.249Z,5.50
2023-02-12T20:29:13.413Z,5.60
2023-02-12T20:31:41.243Z,5.60
2023-02-12T20:34:12.986Z,5.40
2023-02-12T20:36:43.271Z,5.50
2023-02-12T20:39:13.421Z,5.50
2023-02-12T20:41:41.334Z,5.50
2023-02-12T20:44:12.099Z,5.50
2023-02-12T20:46:42.437Z,5.40
2023-02-12T20:49:12.679Z,5.30
2023-02-12T20:51:40.391Z,5.30
2023-02-12T20:54:08.211Z,5.30
2023-02-12T20:56:38.527Z,5.30
2023-02-12T20:59:07.505Z,5.40
2023-02-12T21:01:37.049Z,5.30
2023-02-12T21:04:08.127Z,5.30
2023-02-12T21:06:39.233Z,5.20
2023-02-12T21:09:07.740Z,5.10
2023-02-12T21:11:35.412Z,5.10
2023-02-12T21:14:20.908Z,5.10
2023-02-12T21:16:49.648Z,5.00
2023-02-12T21:19:18.994Z,5.00
2023-02-12T21:21:47.669Z,4.90
2023-02-12T21:24:17.448Z,4.80
2023-02-12T21:26:45.334Z,4.50
2023-02-12T21:29:13.280Z,4.50
2023-02-12T21:31:43.665Z,4.50
2023-02-12T21:34:14.863Z,4.50
2023-02-12T21:36:46.138Z,4.30
2023-02-12T21:39:16.383Z,4.30
2023-02-12T21:41:44.596Z,4.20
2023-02-12T21:44:14.179Z,4.20
2023-02-12T21:46:42.885Z,4.30
2023-02-12T21:49:12.434Z,4.20
2023-02-12T21:51:41.949Z,4.20
2023-02-12T21:54:12.867Z,4.10
2023-02-12T21:56:42.947Z,4.00
2023-02-12T21:59:10.921Z,4.00
2023-02-12T22:01:41.769Z,4.00
2023-02-12T22:04:10.237Z,4.00
2023-02-12T22:06:39.541Z,4.00
2023-02-12T22:09:09.212Z,3.90
2023-02-12T22:11:40.056Z,3.80
2023-02-12T22:14:09.060Z,3.80
2023-02-12T22:16:37.920Z,3.60
2023-02-12T22:19:06.113Z,3.50
2023-02-12T22:21:36.196Z,3.40
2023-02-12T22:24:05.918Z,3.50
2023-02-12T22:26:34.290Z,3.50
2023-02-12T22:29:06.147Z,3.40
2023-02-12T22:31:37.065Z,3.40
2023-02-12T22:34:06.935Z,3.40
2023-02-12T22:36:36.215Z,3.20
2023-02-12T22:39:04.976Z,3.20
2023-02-12T22:41:33.507Z,3.20
2023-02-12T22:44:04.922Z,3.20
2023-02-12T22:46:33.049Z,3.10
2023-02-12T22:49:01.367Z,3.10
2023-02-12T22:51:32.955Z,3.10
2023-02-12T22:54:01.772Z,3.10
2023-02-12T22:56:29.934Z,3.20
2023-02-12T22:58:59.338Z,3.10
2023-02-12T23:01:29.140Z,3.10
2023-02-12T23:03:57.007Z,3.00
2023-02-12T23:06:26.753Z,3.10
2023-02-12T23:08:56.341Z,2.90
2023-02-12T23:11:24.777Z,2.90
2023-02-12T23:13:52.825Z,2.80
2023-02-12T23:16:21.664Z,2.90
2023-02-12T23:18:55.180Z,2.70
2023-02-12T23:21:22.843Z,2.70
2023-02-12T23:23:50.557Z,2.80
2023-02-12T23:26:18.260Z,2.80
2023-02-12T23:28:45.910Z,2.80
2023-02-12T23:31:13.711Z,2.70
2023-02-12T23:33:41.452Z,2.60
2023-02-12T23:36:11.015Z,2.70
2023-02-12T23:38:38.731Z,2.70
2023-02-12T23:41:06.652Z,2.70
2023-02-12T23:43:34.336Z,2.30
2023-02-12T23:46:02.368Z,2.30
2023-02-12T23:48:30.135Z,2.30
2023-02-12T23:50:58.189Z,2.40
2023-02-12T23:53:27.384Z,2.30
2023-02-12T23:55:55.129Z,2.40
2023-02-12T23:58:22.918Z,2.10
